Birmingham, AL (35208)

7:44 PM CST on January 31, 2015 (GMT -0600)
UAB HHB | Change Station
CLOSE
Current Station
Personal Weather Station
Location: Birmingham, AL
Elevation: 617 ft
Nearby Weather Stations

Elev 617 ft 33.50 °N, 86.81 °W | Updated 49 seconds ago

Mostly Cloudy
Mostly Cloudy
53.6 °F
Feels Like 53.6 °F
N
3.0
Wind Variable Wind from NNW
Gusts 10.0 mph

Today
High -- | Low -- °F
--% Chance of Precip.
Yesterday
High -- | Low -- °F
Precip. -- in
6:44 AM 5:17 PM
Waxing Gibbous, 92% visible
Pressure 30.27 in
Visibility 10.0 miles
Clouds Overcast 15000 ft
Dew Point 22 °F
Humidity 29%
Rainfall 0.00 in
Snow Depth Not available.
UV 0 out of 12
Pollen 4.20 out of 12
Air Quality Not available.
Flu Activity Not available.
METAR KBHM 010053Z 11003KT 10SM OVC150 12/M08 A3026 RMK AO2 SLP248 T01171083

More Conditions Fewer Conditions

Pressure 30.27 in
Visibility 10.0 miles
Clouds Overcast 15000 ft
Dew Point 22 °F
Humidity 29%
Rainfall 0.00 in
Snow Depth Not available.
UV 0 out of 12
Pollen 4.20 out of 12
Air Quality Not available.
Flu Activity Not available.
METAR KBHM 010053Z 11003KT 10SM OVC150 12/M08 A3026 RMK AO2 SLP248 T01171083

More Conditions Fewer Conditions

10-Day Weather Forecast

Almanac

Astronomy

Jan. 31, 2015 Rise Set
Actual Time
Civil Twilight
Nautical Twilight
Astronomical Twilight
Moon
Length of Visible Light
Length of Day
Tomorrow will be .
, % of the Moon is Illuminated

Today's Extremes

State Highs State Lows

Community

WunderPhotos

Upload Photos

1,792,280 photos uploaded!

WunderBlogs® & News

Nearby

Air Quality

  Air Quality AQ Index Pollutant
Not available.

Snow Depth

Station Depth Elevation

Earthquake Activity

City Distance Mag. Time & Date
Minimum magnitude displayed is 2.5.

Coastal Water Temperatures

Place Temperature

Nearby Weather Stations